createdAt,value
2023-05-08T00:00:05.149Z,5.32
2023-05-08T00:02:34.062Z,3.70
2023-05-08T00:05:02.342Z,8.93
2023-05-08T00:07:30.725Z,4.70
2023-05-08T00:09:59.001Z,3.20
2023-05-08T00:12:27.236Z,5.18
2023-05-08T00:14:55.626Z,5.03
2023-05-08T00:17:24.050Z,6.22
2023-05-08T00:19:53.108Z,3.17
2023-05-08T00:22:21.639Z,3.90
2023-05-08T00:24:49.981Z,5.22
2023-05-08T00:27:27.267Z,5.60
2023-05-08T00:29:55.699Z,6.07
2023-05-08T00:32:24.575Z,4.10
2023-05-08T00:34:54.071Z,2.42
2023-05-08T00:37:22.528Z,9.55
2023-05-08T00:39:50.819Z,4.63
2023-05-08T00:42:19.089Z,4.50
2023-05-08T00:44:48.024Z,6.30
2023-05-08T00:47:16.650Z,6.07
2023-05-08T00:49:45.633Z,3.05
2023-05-08T00:52:13.989Z,3.25
2023-05-08T00:54:42.448Z,4.50
2023-05-08T00:57:12.060Z,6.45
2023-05-08T00:59:41.852Z,5.22
2023-05-08T01:02:10.552Z,8.13
2023-05-08T01:04:39.402Z,4.55
2023-05-08T01:07:08.075Z,2.95
2023-05-08T01:09:36.317Z,8.70
2023-05-08T01:12:25.788Z,3.13
2023-05-08T01:15:18.603Z,3.05
2023-05-08T01:18:06.749Z,3.13
2023-05-08T01:21:10.446Z,3.35
2023-05-08T01:24:00.381Z,4.22
2023-05-08T01:26:56.372Z,2.05
2023-05-08T01:29:34.048Z,2.53
2023-05-08T01:32:23.832Z,2.00
2023-05-08T01:35:01.334Z,2.38
2023-05-08T01:38:16.448Z,2.05
2023-05-08T01:40:52.202Z,1.42
2023-05-08T01:43:30.043Z,2.08
2023-05-08T01:46:02.383Z,1.80
2023-05-08T01:48:36.244Z,2.60
2023-05-08T01:51:17.158Z,1.95
2023-05-08T01:53:55.520Z,2.20
2023-05-08T01:56:27.120Z,9.00
2023-05-08T01:58:58.202Z,3.42
2023-05-08T02:01:29.431Z,2.40
2023-05-08T02:04:00.228Z,2.08
2023-05-08T02:06:31.256Z,4.63
2023-05-08T02:09:01.220Z,2.33
2023-05-08T02:11:32.444Z,3.17
2023-05-08T02:14:02.685Z,2.80
2023-05-08T02:16:32.839Z,5.53
2023-05-08T02:19:03.182Z,1.35
2023-05-08T02:21:32.618Z,4.25
2023-05-08T02:24:03.386Z,7.05
2023-05-08T02:26:33.784Z,4.32
2023-05-08T02:29:04.053Z,4.28
2023-05-08T02:31:32.789Z,4.68
2023-05-08T02:34:02.715Z,2.50
2023-05-08T02:36:32.122Z,2.78
2023-05-08T02:39:02.954Z,3.63
2023-05-08T02:41:33.867Z,3.42
2023-05-08T02:44:02.872Z,8.00
2023-05-08T02:46:46.376Z,2.47
2023-05-08T02:49:26.960Z,2.90
2023-05-08T02:52:32.981Z,5.55
2023-05-08T02:55:15.084Z,3.33
2023-05-08T02:58:01.884Z,6.05
2023-05-08T03:00:33.409Z,5.55
2023-05-08T03:03:33.063Z,3.33
2023-05-08T03:06:02.886Z,3.08
2023-05-08T03:08:34.266Z,3.75
2023-05-08T03:11:21.759Z,2.70
2023-05-08T03:13:51.542Z,2.88
2023-05-08T03:16:24.457Z,2.72
2023-05-08T03:19:01.383Z,4.10
2023-05-08T03:21:32.366Z,3.17
2023-05-08T03:24:03.998Z,2.47
2023-05-08T03:26:33.254Z,2.63
2023-05-08T03:29:02.535Z,4.03
2023-05-08T03:31:35.403Z,2.15
2023-05-08T03:34:06.906Z,2.40
2023-05-08T03:36:35.614Z,1.60
2023-05-08T03:39:05.511Z,2.30
2023-05-08T03:41:34.088Z,1.58
2023-05-08T03:44:03.801Z,3.83
2023-05-08T03:46:33.165Z,2.75
2023-05-08T03:49:08.901Z,2.78
2023-05-08T03:51:40.650Z,1.30
2023-05-08T03:54:09.535Z,1.98
2023-05-08T03:56:37.922Z,3.70
2023-05-08T03:59:14.451Z,4.35
2023-05-08T04:02:14.051Z,2.03
2023-05-08T04:04:45.379Z,2.92
2023-05-08T04:07:24.161Z,1.92
2023-05-08T04:10:19.895Z,1.60
2023-05-08T04:13:11.199Z,2.83
2023-05-08T04:15:53.057Z,2.83
2023-05-08T04:18:30.719Z,9.00
2023-05-08T04:21:03.415Z,3.22
2023-05-08T04:23:33.980Z,2.30
2023-05-08T04:26:05.549Z,2.55
2023-05-08T04:28:35.048Z,2.55
2023-05-08T04:31:05.167Z,3.15
2023-05-08T04:33:35.587Z,4.15
2023-05-08T04:36:04.660Z,5.38
2023-05-08T04:38:37.914Z,2.15
2023-05-08T04:41:08.225Z,2.97
2023-05-08T04:43:37.178Z,2.60
2023-05-08T04:46:07.027Z,3.97
2023-05-08T04:48:35.362Z,4.60
2023-05-08T04:51:03.760Z,5.05
2023-05-08T04:53:32.436Z,5.32
2023-05-08T04:56:00.852Z,5.63
2023-05-08T04:58:29.285Z,8.43
2023-05-08T05:01:03.569Z,6.43
2023-05-08T05:03:32.750Z,8.93
2023-05-08T05:06:02.369Z,5.85
2023-05-08T05:08:30.637Z,3.90
2023-05-08T05:11:00.134Z,7.70
2023-05-08T05:13:29.356Z,6.05
2023-05-08T05:16:00.242Z,5.57
2023-05-08T05:18:29.030Z,6.15
2023-05-08T05:20:59.437Z,8.60
2023-05-08T05:23:30.060Z,10.45
2023-05-08T05:25:58.344Z,10.25
2023-05-08T05:28:27.050Z,7.90
2023-05-08T05:30:55.542Z,6.80
2023-05-08T05:33:24.401Z,7.95
2023-05-08T05:35:52.777Z,7.18
2023-05-08T05:38:21.117Z,10.73
2023-05-08T05:40:49.557Z,5.75
2023-05-08T05:43:17.957Z,5.10
2023-05-08T05:45:46.775Z,8.02
2023-05-08T05:48:15.684Z,9.75
2023-05-08T05:50:44.257Z,6.80
2023-05-08T05:53:13.156Z,5.93
2023-05-08T05:55:41.901Z,4.80
2023-05-08T05:58:10.387Z,6.38
2023-05-08T06:00:38.663Z,6.65
2023-05-08T06:03:07.052Z,6.10
2023-05-08T06:05:35.463Z,8.50
2023-05-08T06:08:03.911Z,6.70
2023-05-08T06:10:32.278Z,8.52
2023-05-08T06:13:00.684Z,6.45
2023-05-08T06:15:29.537Z,8.82
2023-05-08T06:17:58.263Z,6.13
2023-05-08T06:20:26.794Z,5.90
2023-05-08T06:22:55.091Z,6.13
2023-05-08T06:25:23.524Z,6.95
2023-05-08T06:27:51.976Z,9.18
2023-05-08T06:30:20.375Z,9.05
2023-05-08T06:32:48.718Z,7.00
2023-05-08T06:35:19.468Z,5.38
2023-05-08T06:37:47.797Z,6.65
2023-05-08T06:40:16.074Z,6.38
2023-05-08T06:42:44.409Z,5.55
2023-05-08T06:45:13.721Z,7.95
2023-05-08T06:47:42.127Z,7.45
2023-05-08T06:50:10.779Z,9.93
2023-05-08T06:52:39.062Z,8.48
2023-05-08T06:55:07.629Z,7.75
2023-05-08T06:57:36.186Z,6.32
2023-05-08T07:00:05.013Z,7.15
2023-05-08T07:02:34.879Z,8.45
2023-05-08T07:05:03.602Z,4.88
2023-05-08T07:07:32.889Z,4.50
2023-05-08T07:10:01.203Z,4.70
2023-05-08T07:12:29.590Z,5.50
2023-05-08T07:14:58.056Z,3.35
2023-05-08T07:17:26.924Z,5.60
2023-05-08T07:19:55.151Z,6.68
2023-05-08T07:22:23.472Z,7.25
2023-05-08T07:24:51.909Z,10.88
2023-05-08T07:27:20.330Z,10.35
2023-05-08T07:29:48.603Z,8.48
2023-05-08T07:32:17.419Z,11.05
2023-05-08T07:34:45.680Z,11.02
2023-05-08T07:37:14.165Z,11.30
2023-05-08T07:39:42.395Z,14.45
2023-05-08T07:42:10.622Z,13.93
2023-05-08T07:44:51.048Z,14.43
2023-05-08T07:47:23.185Z,16.23
2023-05-08T07:49:51.557Z,13.20
2023-05-08T07:52:20.025Z,11.65
2023-05-08T07:54:48.277Z,14.35
2023-05-08T07:57:16.601Z,14.23
2023-05-08T07:59:44.914Z,13.90
2023-05-08T08:02:13.242Z,11.48
2023-05-08T08:04:41.537Z,13.60
2023-05-08T08:07:09.798Z,11.38
2023-05-08T08:09:38.002Z,11.25
2023-05-08T08:12:06.425Z,10.73
2023-05-08T08:14:34.614Z,8.82
2023-05-08T08:17:02.920Z,9.90
2023-05-08T08:19:31.181Z,10.60
2023-05-08T08:21:59.535Z,8.98
2023-05-08T08:24:29.343Z,9.60
2023-05-08T08:26:58.108Z,13.38
2023-05-08T08:29:26.529Z,10.43
2023-05-08T08:31:54.758Z,10.10
2023-05-08T08:34:23.591Z,8.48
2023-05-08T08:36:52.167Z,9.90
2023-05-08T08:39:20.689Z,6.60
2023-05-08T08:41:48.936Z,7.30
2023-05-08T08:44:17.459Z,7.18
2023-05-08T08:46:53.945Z,10.20
2023-05-08T08:49:31.645Z,9.50
2023-05-08T08:52:07.134Z,9.18
2023-05-08T08:54:36.340Z,8.45
2023-05-08T08:57:09.657Z,8.68
2023-05-08T09:02:17.696Z,9.68
2023-05-08T09:04:49.518Z,12.02
2023-05-08T09:07:18.637Z,12.13
2023-05-08T09:09:48.795Z,12.63
2023-05-08T09:12:17.142Z,8.82
2023-05-08T09:14:45.382Z,14.82
2023-05-08T09:17:14.270Z,11.15
2023-05-08T09:19:43.409Z,14.00
2023-05-08T09:22:13.028Z,12.27
2023-05-08T09:25:01.000Z,12.27
2023-05-08T09:27:31.260Z,19.77
2023-05-08T09:30:05.921Z,12.32
2023-05-08T09:32:37.393Z,12.52
2023-05-08T09:35:07.324Z,11.35
2023-05-08T09:37:39.691Z,14.98
2023-05-08T09:40:16.133Z,15.13
2023-05-08T09:42:44.752Z,11.00
2023-05-08T09:45:26.109Z,13.23
2023-05-08T09:47:54.423Z,12.20
2023-05-08T09:50:22.824Z,14.77
2023-05-08T09:52:51.328Z,18.83
2023-05-08T09:55:20.565Z,13.18
2023-05-08T09:57:57.144Z,14.45
2023-05-08T10:00:30.060Z,15.88
2023-05-08T10:03:01.344Z,14.27
2023-05-08T10:05:36.361Z,13.93
2023-05-08T10:08:26.569Z,13.55
2023-05-08T10:10:54.942Z,14.15
2023-05-08T10:13:23.567Z,13.55
2023-05-08T10:15:56.569Z,14.13
2023-05-08T10:18:26.578Z,13.63
2023-05-08T10:20:55.912Z,16.42
2023-05-08T10:23:24.495Z,14.23
2023-05-08T10:26:02.148Z,15.05
2023-05-08T10:28:40.987Z,12.45
2023-05-08T10:31:13.429Z,13.80
2023-05-08T10:33:44.811Z,16.17
2023-05-08T10:36:14.935Z,16.35
2023-05-08T10:38:44.856Z,10.73
2023-05-08T10:41:13.634Z,11.73
2023-05-08T10:43:44.765Z,10.75
2023-05-08T10:46:46.004Z,15.82
2023-05-08T10:49:29.658Z,14.65
2023-05-08T10:52:21.106Z,11.63
2023-05-08T10:55:04.833Z,10.88
2023-05-08T10:57:33.047Z,12.82
2023-05-08T11:00:01.389Z,11.00
2023-05-08T11:02:31.741Z,9.60
2023-05-08T11:05:16.915Z,7.38
2023-05-08T11:07:58.773Z,7.57
2023-05-08T11:10:33.310Z,7.13
2023-05-08T11:13:02.869Z,6.20
2023-05-08T11:15:38.651Z,5.63
2023-05-08T11:18:11.648Z,4.35
2023-05-08T11:20:58.845Z,5.75
2023-05-08T11:23:28.839Z,5.03
2023-05-08T11:26:04.473Z,3.97
2023-05-08T11:28:34.280Z,4.82
2023-05-08T11:31:09.291Z,4.70
2023-05-08T11:33:38.233Z,5.47
2023-05-08T11:36:22.336Z,4.57
2023-05-08T11:39:17.910Z,3.65
2023-05-08T11:41:47.988Z,8.07
2023-05-08T11:44:23.875Z,9.88
2023-05-08T11:46:54.274Z,6.45
2023-05-08T11:49:28.441Z,6.90
2023-05-08T11:51:59.923Z,4.32
2023-05-08T11:54:31.639Z,5.68
2023-05-08T11:56:59.987Z,5.55
2023-05-08T11:59:28.179Z,8.35
2023-05-08T12:02:07.754Z,6.85
2023-05-08T12:04:45.604Z,3.75
2023-05-08T12:07:14.239Z,4.90
2023-05-08T12:09:42.634Z,5.43
2023-05-08T12:12:10.885Z,4.50
2023-05-08T12:14:39.302Z,4.05
2023-05-08T12:17:07.680Z,4.38
2023-05-08T12:19:36.121Z,4.85
2023-05-08T12:22:04.407Z,5.85
2023-05-08T12:24:32.930Z,6.72
2023-05-08T12:27:01.260Z,4.93
2023-05-08T12:29:29.501Z,7.57
2023-05-08T12:31:58.049Z,9.50
2023-05-08T12:34:26.515Z,6.93
2023-05-08T12:37:05.019Z,6.28
2023-05-08T12:39:37.697Z,10.32
2023-05-08T12:42:06.228Z,5.68
2023-05-08T12:44:34.522Z,5.07
2023-05-08T12:47:04.915Z,4.57
2023-05-08T12:49:33.586Z,4.80
2023-05-08T12:52:12.409Z,4.85
2023-05-08T12:54:46.615Z,6.13
2023-05-08T12:57:17.807Z,8.05
2023-05-08T12:59:46.847Z,8.90
2023-05-08T13:02:16.250Z,6.53
2023-05-08T13:04:45.369Z,6.40
2023-05-08T13:07:14.086Z,8.43
2023-05-08T13:10:01.165Z,10.18
2023-05-08T13:12:29.813Z,7.90
2023-05-08T13:14:58.067Z,16.25
2023-05-08T13:17:26.404Z,8.35
2023-05-08T13:19:54.655Z,8.38
2023-05-08T13:22:26.598Z,7.40
2023-05-08T13:24:54.880Z,9.93
2023-05-08T13:27:23.498Z,8.15
2023-05-08T13:29:51.856Z,8.43
2023-05-08T13:32:20.197Z,7.22
2023-05-08T13:34:51.407Z,10.60
2023-05-08T13:37:20.608Z,12.60
2023-05-08T13:39:48.904Z,8.13
2023-05-08T13:42:17.070Z,10.30
2023-05-08T13:44:45.493Z,10.57
2023-05-08T13:47:13.795Z,12.63
2023-05-08T13:49:42.076Z,12.15
2023-05-08T13:52:10.385Z,10.02
2023-05-08T13:54:38.589Z,10.48
2023-05-08T13:57:08.142Z,10.98
2023-05-08T13:59:36.521Z,8.70
2023-05-08T14:02:04.909Z,10.55
2023-05-08T14:04:33.423Z,7.55
2023-05-08T14:07:01.684Z,8.27
2023-05-08T14:09:31.175Z,12.38
2023-05-08T14:11:59.740Z,12.77
2023-05-08T14:14:27.962Z,11.07
2023-05-08T14:16:56.276Z,7.38
2023-05-08T14:19:25.715Z,9.85
2023-05-08T14:21:54.066Z,10.82
2023-05-08T14:24:22.496Z,9.52
2023-05-08T14:26:50.902Z,9.00
2023-05-08T14:29:19.160Z,7.70
2023-05-08T14:31:47.593Z,12.80
2023-05-08T14:34:15.828Z,8.40
2023-05-08T14:36:44.076Z,8.43
2023-05-08T14:39:12.316Z,10.88
2023-05-08T14:41:40.844Z,10.98
2023-05-08T14:44:09.104Z,10.93
2023-05-08T14:46:37.519Z,8.68
2023-05-08T14:49:06.009Z,12.77
2023-05-08T14:51:34.213Z,10.55
2023-05-08T14:54:02.621Z,9.18
2023-05-08T14:56:40.457Z,8.10
2023-05-08T14:59:15.114Z,8.38
2023-05-08T15:01:43.543Z,8.32
2023-05-08T15:04:12.242Z,7.88
2023-05-08T15:06:41.465Z,9.32
2023-05-08T15:09:10.355Z,17.63
2023-05-08T15:11:38.782Z,9.23
2023-05-08T15:14:07.246Z,9.02
2023-05-08T15:16:35.599Z,7.97
2023-05-08T15:19:03.944Z,11.77
2023-05-08T15:21:32.269Z,9.98
2023-05-08T15:24:00.517Z,11.07
2023-05-08T15:26:28.727Z,9.93
2023-05-08T15:28:56.951Z,9.77
2023-05-08T15:31:25.197Z,9.95
2023-05-08T15:33:53.444Z,8.07
2023-05-08T15:36:21.754Z,8.50
2023-05-08T15:38:50.119Z,8.32
2023-05-08T15:41:18.483Z,8.13
2023-05-08T15:43:47.344Z,7.45
2023-05-08T15:46:15.712Z,5.28
2023-05-08T15:48:44.061Z,6.90
2023-05-08T15:51:12.360Z,4.75
2023-05-08T15:53:40.752Z,4.65
2023-05-08T15:56:08.953Z,7.07
2023-05-08T15:58:39.027Z,8.85
2023-05-08T16:01:07.706Z,7.63
2023-05-08T16:03:36.000Z,6.45
2023-05-08T16:06:06.762Z,5.18
2023-05-08T16:08:36.299Z,6.22
2023-05-08T16:11:04.743Z,7.65
2023-05-08T16:13:41.481Z,8.20
2023-05-08T16:16:12.190Z,5.43
2023-05-08T16:18:40.470Z,6.68
2023-05-08T16:21:13.228Z,5.72
2023-05-08T16:23:44.282Z,7.28
2023-05-08T16:26:14.127Z,9.73
2023-05-08T16:28:44.736Z,4.78
2023-05-08T16:31:13.240Z,4.68
2023-05-08T16:33:44.636Z,7.65
2023-05-08T16:36:13.497Z,6.88
2023-05-08T16:38:41.830Z,5.53
2023-05-08T16:41:11.656Z,6.57
2023-05-08T16:43:40.105Z,5.32
2023-05-08T16:46:10.843Z,5.90
2023-05-08T16:48:39.562Z,5.78
2023-05-08T16:51:08.443Z,4.95
2023-05-08T16:53:37.389Z,6.32
2023-05-08T16:56:06.132Z,8.50
2023-05-08T16:58:35.284Z,9.70
2023-05-08T17:01:06.611Z,6.13
2023-05-08T17:03:37.230Z,5.82
2023-05-08T17:06:09.494Z,7.70
2023-05-08T17:08:37.795Z,6.45
2023-05-08T17:11:06.087Z,6.55
2023-05-08T17:13:34.409Z,8.02
2023-05-08T17:16:02.995Z,8.52
2023-05-08T17:18:31.278Z,6.00
2023-05-08T17:20:59.570Z,6.38
2023-05-08T17:23:28.096Z,5.55
2023-05-08T17:25:57.693Z,5.63
2023-05-08T17:28:26.168Z,7.60
2023-05-08T17:30:54.563Z,8.10
2023-05-08T17:33:22.948Z,5.90
2023-05-08T17:35:51.122Z,5.72
2023-05-08T17:38:19.399Z,6.18
2023-05-08T17:40:47.874Z,7.50
2023-05-08T17:43:17.385Z,5.97
2023-05-08T17:45:47.512Z,8.45
2023-05-08T17:48:16.000Z,7.65
2023-05-08T17:50:45.827Z,7.50
2023-05-08T17:53:14.217Z,7.32
2023-05-08T17:55:42.435Z,6.20
2023-05-08T17:58:10.657Z,6.72
2023-05-08T18:00:39.274Z,6.28
2023-05-08T18:03:07.571Z,7.25
2023-05-08T18:05:37.630Z,6.50
2023-05-08T18:08:06.116Z,10.57
2023-05-08T18:10:39.252Z,6.88
2023-05-08T18:13:07.859Z,8.65
2023-05-08T18:15:38.981Z,9.27
2023-05-08T18:18:07.460Z,7.53
2023-05-08T18:20:35.717Z,9.80
2023-05-08T18:23:04.070Z,7.28
2023-05-08T18:25:32.486Z,7.93
2023-05-08T18:28:00.715Z,7.32
2023-05-08T18:30:28.984Z,6.35
2023-05-08T18:32:57.625Z,7.90
2023-05-08T18:35:25.892Z,7.57
2023-05-08T18:37:54.136Z,8.15
2023-05-08T18:40:22.416Z,9.10
2023-05-08T18:42:50.807Z,8.20
2023-05-08T18:45:19.291Z,10.93
2023-05-08T18:47:48.024Z,9.27
2023-05-08T18:50:16.621Z,6.30
2023-05-08T18:52:45.051Z,8.52
2023-05-08T18:55:13.348Z,8.07
2023-05-08T18:57:41.616Z,9.43
2023-05-08T19:00:10.815Z,7.35
2023-05-08T19:02:39.088Z,7.72
2023-05-08T19:05:07.810Z,8.60
2023-05-08T19:07:36.529Z,8.38
2023-05-08T19:10:06.722Z,7.32
2023-05-08T19:12:34.967Z,10.95
2023-05-08T19:15:03.379Z,9.23
2023-05-08T19:17:31.663Z,8.13
2023-05-08T19:19:59.925Z,11.20
2023-05-08T19:22:28.138Z,11.88
2023-05-08T19:24:56.372Z,8.68
2023-05-08T19:27:25.735Z,8.30
2023-05-08T19:29:54.042Z,6.07
2023-05-08T19:32:22.325Z,8.95
2023-05-08T19:34:50.838Z,6.53
2023-05-08T19:37:19.232Z,6.35
2023-05-08T19:39:47.515Z,7.80
2023-05-08T19:42:16.029Z,5.53
2023-05-08T19:44:44.292Z,5.85
2023-05-08T19:47:13.036Z,7.43
2023-05-08T19:49:42.152Z,9.52
2023-05-08T19:52:10.641Z,7.40
2023-05-08T19:54:38.862Z,6.82
2023-05-08T19:57:08.404Z,6.38
2023-05-08T19:59:39.235Z,7.38
2023-05-08T20:02:07.926Z,11.05
2023-05-08T20:04:48.728Z,10.05
2023-05-08T20:07:25.494Z,5.10
2023-05-08T20:09:54.088Z,7.30
2023-05-08T20:12:22.406Z,6.07
2023-05-08T20:14:50.895Z,6.50
2023-05-08T20:17:19.595Z,11.73
2023-05-08T20:19:48.846Z,9.25
2023-05-08T20:22:17.375Z,6.18
2023-05-08T20:24:45.718Z,9.45
2023-05-08T20:27:15.246Z,5.85
2023-05-08T20:29:45.165Z,7.05
2023-05-08T20:32:15.000Z,9.35
2023-05-08T20:34:44.591Z,7.30
2023-05-08T20:37:13.040Z,8.05
2023-05-08T20:39:41.561Z,7.47
2023-05-08T20:42:09.832Z,7.50
2023-05-08T20:44:38.033Z,7.97
2023-05-08T20:47:06.286Z,6.88
2023-05-08T20:49:34.469Z,8.00
2023-05-08T20:52:02.997Z,7.13
2023-05-08T20:54:31.627Z,6.35
2023-05-08T20:57:01.354Z,6.95
2023-05-08T20:59:29.530Z,6.85
2023-05-08T21:01:57.802Z,6.82
2023-05-08T21:04:26.247Z,7.70
2023-05-08T21:06:54.557Z,5.45
2023-05-08T21:09:22.708Z,5.15
2023-05-08T21:11:50.945Z,9.85
2023-05-08T21:14:19.260Z,9.05
2023-05-08T21:16:47.558Z,5.43
2023-05-08T21:19:19.456Z,8.15
2023-05-08T21:21:48.120Z,7.07
2023-05-08T21:24:16.397Z,9.55
2023-05-08T21:26:44.640Z,5.93
2023-05-08T21:29:12.918Z,10.52
2023-05-08T21:31:44.210Z,9.70
2023-05-08T21:34:13.496Z,10.80
2023-05-08T21:36:41.869Z,7.80
2023-05-08T21:39:10.102Z,10.80
2023-05-08T21:41:38.436Z,8.85
2023-05-08T21:44:06.674Z,7.50
2023-05-08T21:46:35.034Z,12.50
2023-05-08T21:49:03.741Z,12.27
2023-05-08T21:51:32.654Z,8.82
2023-05-08T21:54:01.460Z,6.85
2023-05-08T21:56:29.718Z,7.03
2023-05-08T21:58:57.924Z,6.85
2023-05-08T22:01:26.283Z,8.65
2023-05-08T22:03:54.768Z,9.35
2023-05-08T22:06:23.396Z,6.88
2023-05-08T22:08:51.651Z,8.35
2023-05-08T22:11:19.931Z,8.48
2023-05-08T22:13:48.185Z,5.93
2023-05-08T22:16:16.459Z,6.90
2023-05-08T22:18:44.751Z,8.52
2023-05-08T22:21:13.045Z,6.82
2023-05-08T22:23:41.225Z,7.85
2023-05-08T22:26:09.507Z,6.63
2023-05-08T22:28:37.786Z,7.22
2023-05-08T22:31:07.507Z,5.57
2023-05-08T22:33:35.830Z,7.70
2023-05-08T22:36:04.378Z,6.78
2023-05-08T22:38:32.676Z,7.22
2023-05-08T22:41:01.209Z,5.65
2023-05-08T22:43:29.611Z,7.50
2023-05-08T22:45:58.333Z,5.18
2023-05-08T22:48:26.806Z,6.00
2023-05-08T22:50:55.144Z,5.10
2023-05-08T22:53:23.374Z,5.20
2023-05-08T22:55:51.650Z,4.65
2023-05-08T22:58:19.918Z,5.60
2023-05-08T23:00:48.312Z,5.13
2023-05-08T23:03:16.669Z,5.80
2023-05-08T23:05:45.013Z,5.47
2023-05-08T23:08:13.213Z,7.32
2023-05-08T23:10:41.539Z,4.30
2023-05-08T23:13:09.922Z,5.72
2023-05-08T23:15:38.128Z,3.55
2023-05-08T23:18:06.610Z,6.20
2023-05-08T23:20:34.939Z,5.13
2023-05-08T23:23:03.206Z,6.13
2023-05-08T23:25:31.726Z,7.38
2023-05-08T23:27:59.901Z,8.80
2023-05-08T23:30:28.204Z,8.48
2023-05-08T23:32:56.623Z,6.13
2023-05-08T23:35:24.997Z,6.75
2023-05-08T23:37:53.314Z,13.43
2023-05-08T23:40:21.675Z,7.25
2023-05-08T23:42:52.097Z,6.60
2023-05-08T23:45:20.588Z,6.13
2023-05-08T23:47:49.519Z,7.05
2023-05-08T23:50:17.880Z,7.68
2023-05-08T23:52:46.302Z,10.18
2023-05-08T23:55:15.041Z,9.07
2023-05-08T23:57:43.516Z,10.25
